createdAt,value
2018-11-04T00:00:37.085Z,91.01
2018-11-04T00:03:07.407Z,91.14
2018-11-04T00:05:37.779Z,91.47
2018-11-04T00:08:08.047Z,91.73
2018-11-04T00:10:40.216Z,91.56
2018-11-04T00:13:10.530Z,91.33
2018-11-04T00:15:40.862Z,91.54
2018-11-04T00:18:11.268Z,91.95
2018-11-04T00:20:41.549Z,92.02
2018-11-04T00:23:11.890Z,91.86
2018-11-04T00:25:42.117Z,92.15
2018-11-04T00:28:12.437Z,92.01
2018-11-04T00:30:42.754Z,92.53
2018-11-04T00:33:13.055Z,92.65
2018-11-04T00:35:43.371Z,92.86
2018-11-04T00:38:13.696Z,92.43
2018-11-04T00:40:43.932Z,92.97
2018-11-04T00:43:14.216Z,92.39
2018-11-04T00:45:44.566Z,92.84
2018-11-04T00:48:14.896Z,92.97
2018-11-04T00:50:45.180Z,92.96
2018-11-04T00:53:15.473Z,92.97
2018-11-04T00:55:52.745Z,93.40
2018-11-04T00:58:24.010Z,93.38
2018-11-04T01:00:54.580Z,93.20
2018-11-04T01:03:24.921Z,93.57
2018-11-04T01:05:55.215Z,93.49
2018-11-04T01:08:25.595Z,93.65
2018-11-04T01:10:55.871Z,93.58
2018-11-04T01:13:26.139Z,93.69
2018-11-04T01:15:56.415Z,93.64
2018-11-04T01:18:26.653Z,93.72
2018-11-04T01:20:56.957Z,93.76
2018-11-04T01:23:27.279Z,93.87
2018-11-04T01:25:57.539Z,93.44
2018-11-04T01:28:27.897Z,94.06
2018-11-04T01:30:58.235Z,94.10
2018-11-04T01:33:28.480Z,93.68
2018-11-04T01:35:58.679Z,93.73
2018-11-04T01:38:29.022Z,94.20
2018-11-04T01:40:59.283Z,94.08
2018-11-04T01:43:29.627Z,94.12
2018-11-04T01:45:59.928Z,94.38
2018-11-04T01:48:30.267Z,94.45
2018-11-04T01:51:00.569Z,94.28
2018-11-04T01:53:30.845Z,94.70
2018-11-04T01:56:01.083Z,94.64
2018-11-04T01:58:37.657Z,94.61
2018-11-04T02:01:07.948Z,94.73
2018-11-04T02:03:38.337Z,94.59
2018-11-04T02:06:08.653Z,94.72
2018-11-04T02:08:38.888Z,95.57
2018-11-04T02:11:09.149Z,95.57
2018-11-04T02:13:40.503Z,95.60
2018-11-04T02:16:10.809Z,95.93
2018-11-04T02:18:41.074Z,95.92
2018-11-04T02:21:11.322Z,96.04
2018-11-04T02:23:41.639Z,96.32
2018-11-04T02:26:11.919Z,96.49
2018-11-04T02:28:42.380Z,96.58
2018-11-04T02:31:12.817Z,96.90
2018-11-04T02:33:43.171Z,97.09
2018-11-04T02:36:13.459Z,97.21
2018-11-04T02:38:43.729Z,96.71
2018-11-04T02:41:14.028Z,96.99
2018-11-04T02:43:44.358Z,97.45
2018-11-04T02:46:14.629Z,97.72
2018-11-04T02:48:44.932Z,98.09
2018-11-04T02:51:15.243Z,97.96
2018-11-04T02:53:45.490Z,97.96
2018-11-04T02:56:15.845Z,98.69
2018-11-04T02:58:46.106Z,98.28
2018-11-04T03:01:16.439Z,98.60
2018-11-04T03:03:46.749Z,98.49
2018-11-04T03:06:17.093Z,98.57
2018-11-04T03:08:47.741Z,98.58
2018-11-04T03:11:18.103Z,98.97
2018-11-04T03:13:48.391Z,98.68
2018-11-04T03:16:18.750Z,98.80
2018-11-04T03:18:49.020Z,98.97
2018-11-04T03:21:19.405Z,99.32
2018-11-04T03:23:49.716Z,98.77
2018-11-04T03:26:20.010Z,99.35
2018-11-04T03:28:50.290Z,99.14
2018-11-04T03:31:20.556Z,98.97
2018-11-04T03:33:50.804Z,99.20
2018-11-04T03:36:21.059Z,98.62
2018-11-04T03:38:51.320Z,98.77
2018-11-04T03:41:21.500Z,98.87
2018-11-04T03:43:51.794Z,98.93
2018-11-04T03:46:22.094Z,98.72
2018-11-04T03:48:52.452Z,98.04
2018-11-04T03:51:22.733Z,98.28
2018-11-04T03:53:52.962Z,98.19
2018-11-04T03:56:23.204Z,98.12
2018-11-04T03:58:53.442Z,98.08
2018-11-04T04:01:23.708Z,98.32
2018-11-04T04:03:54.214Z,98.04
2018-11-04T04:06:24.760Z,97.96
2018-11-04T04:08:55.280Z,97.66
2018-11-04T04:11:25.699Z,98.15
2018-11-04T04:13:56.099Z,97.69
2018-11-04T04:16:26.398Z,97.57
2018-11-04T04:18:56.684Z,97.61
2018-11-04T04:21:26.970Z,97.28
2018-11-04T04:23:57.205Z,97.42
2018-11-04T04:26:27.492Z,97.72
2018-11-04T04:28:57.968Z,97.61
2018-11-04T04:31:31.171Z,97.37
2018-11-04T04:34:01.492Z,97.33
2018-11-04T04:36:31.801Z,97.50
2018-11-04T04:39:02.283Z,97.66
2018-11-04T04:41:32.601Z,97.68
2018-11-04T04:44:02.839Z,97.50
2018-11-04T04:46:33.065Z,97.67
2018-11-04T04:49:03.327Z,97.44
2018-11-04T04:51:33.607Z,97.11
2018-11-04T04:54:03.854Z,97.55
2018-11-04T04:56:34.193Z,97.05
2018-11-04T04:59:04.499Z,97.68
2018-11-04T05:01:34.768Z,97.33
2018-11-04T05:04:05.166Z,97.39
2018-11-04T05:06:35.409Z,97.33
2018-11-04T05:09:06.839Z,97.25
2018-11-04T05:11:37.067Z,97.43
2018-11-04T05:14:07.331Z,97.49
2018-11-04T05:16:37.565Z,97.53
2018-11-04T05:19:07.925Z,97.40
2018-11-04T05:21:38.159Z,97.39
2018-11-04T05:24:08.469Z,97.43
2018-11-04T05:26:38.805Z,97.56
2018-11-04T05:29:09.099Z,97.52
2018-11-04T05:31:39.374Z,98.00
2018-11-04T05:34:09.597Z,97.48
2018-11-04T05:36:39.747Z,97.35
2018-11-04T05:39:10.987Z,97.17
2018-11-04T05:41:41.205Z,97.51
2018-11-04T05:44:11.549Z,97.25
2018-11-04T05:46:41.835Z,97.22
2018-11-04T05:49:12.133Z,96.80
2018-11-04T05:51:42.457Z,97.02
2018-11-04T05:54:12.712Z,97.27
2018-11-04T05:56:43.019Z,96.92
2018-11-04T05:59:13.301Z,96.76
2018-11-04T06:01:43.685Z,96.79
2018-11-04T06:04:14.420Z,96.90
2018-11-04T06:06:44.981Z,96.76
2018-11-04T06:09:15.608Z,96.77
2018-11-04T06:11:46.153Z,96.62
2018-11-04T06:14:16.428Z,96.28
2018-11-04T06:16:49.259Z,95.95
2018-11-04T06:19:19.859Z,95.86
2018-11-04T06:21:50.369Z,96.09
2018-11-04T06:24:20.641Z,96.05
2018-11-04T06:26:51.140Z,96.24
2018-11-04T06:29:22.393Z,96.14
2018-11-04T06:31:52.929Z,96.62
2018-11-04T06:34:23.324Z,95.99
2018-11-04T06:36:53.694Z,95.76
2018-11-04T06:39:24.577Z,95.54
2018-11-04T06:41:55.237Z,95.51
2018-11-04T06:44:25.626Z,95.43
2018-11-04T06:46:55.878Z,95.47
2018-11-04T06:49:26.284Z,95.12
2018-11-04T06:51:56.818Z,95.13
2018-11-04T06:54:27.404Z,94.83
2018-11-04T06:56:57.945Z,94.88
2018-11-04T06:59:28.561Z,94.71
2018-11-04T07:01:59.188Z,94.78
2018-11-04T07:04:30.202Z,94.64
2018-11-04T07:07:00.886Z,94.49
2018-11-04T07:09:31.675Z,94.62
2018-11-04T07:12:02.124Z,94.68
2018-11-04T07:14:33.107Z,94.84
2018-11-04T07:17:03.671Z,94.34
2018-11-04T07:19:34.307Z,94.29
2018-11-04T07:22:04.893Z,94.51
2018-11-04T07:24:35.660Z,94.01
2018-11-04T07:27:06.232Z,94.20
2018-11-04T07:29:36.628Z,94.04
2018-11-04T07:32:07.090Z,94.25
2018-11-04T07:34:37.679Z,93.73
2018-11-04T07:37:08.078Z,94.02
2018-11-04T07:39:38.933Z,93.63
2018-11-04T07:42:09.408Z,93.80
2018-11-04T07:44:40.770Z,93.82
2018-11-04T07:47:11.168Z,92.31
2018-11-04T07:49:41.682Z,92.39
2018-11-04T07:52:12.030Z,92.45
2018-11-04T07:54:42.374Z,93.13
2018-11-04T07:57:12.729Z,93.21
2018-11-04T07:59:43.673Z,93.17
2018-11-04T08:02:14.122Z,92.76
2018-11-04T08:04:44.619Z,92.59
2018-11-04T08:07:15.115Z,93.30
2018-11-04T08:09:45.520Z,92.86
2018-11-04T08:12:15.942Z,93.41
2018-11-04T08:14:46.451Z,93.23
2018-11-04T08:17:16.749Z,93.13
2018-11-04T08:19:47.089Z,92.85
2018-11-04T08:22:17.381Z,92.46
2018-11-04T08:24:47.696Z,91.98
2018-11-04T08:27:18.068Z,92.45
2018-11-04T08:29:48.322Z,92.93
2018-11-04T08:32:18.711Z,92.87
2018-11-04T08:34:48.958Z,92.91
2018-11-04T08:37:19.249Z,92.51
2018-11-04T08:39:49.580Z,93.00
2018-11-04T08:42:19.868Z,92.43
2018-11-04T08:44:50.204Z,91.77
2018-11-04T08:47:20.529Z,92.67
2018-11-04T08:49:50.786Z,92.48
2018-11-04T08:52:21.135Z,91.71
2018-11-04T08:54:51.503Z,92.17
2018-11-04T08:57:21.819Z,91.55
2018-11-04T08:59:52.281Z,92.05
2018-11-04T09:02:22.531Z,92.71
2018-11-04T09:04:52.784Z,92.24
2018-11-04T09:07:23.107Z,92.29
2018-11-04T09:09:53.445Z,91.87
2018-11-04T09:12:23.788Z,91.91
2018-11-04T09:14:53.959Z,91.44
2018-11-04T09:17:24.323Z,91.21
2018-11-04T09:19:54.765Z,90.76
2018-11-04T09:22:24.999Z,90.31
2018-11-04T09:24:55.272Z,90.15
2018-11-04T09:27:25.625Z,91.40
2018-11-04T09:29:58.863Z,90.86
2018-11-04T09:32:29.140Z,90.79
2018-11-04T09:34:59.624Z,90.21
2018-11-04T09:37:30.302Z,89.82
2018-11-04T09:40:00.565Z,88.86
2018-11-04T09:42:31.233Z,88.84
2018-11-04T09:45:01.437Z,88.51
2018-11-04T09:47:31.696Z,88.42
2018-11-04T09:50:02.798Z,88.26
2018-11-04T09:52:32.912Z,88.08
2018-11-04T09:55:03.308Z,88.43
2018-11-04T09:57:33.651Z,89.05
2018-11-04T10:00:04.042Z,88.55
2018-11-04T10:02:34.250Z,88.14
2018-11-04T10:05:04.621Z,88.37
2018-11-04T10:07:34.840Z,88.94
2018-11-04T10:10:06.871Z,88.45
2018-11-04T10:12:37.101Z,88.33
2018-11-04T10:15:07.876Z,88.07
2018-11-04T10:17:38.807Z,88.78
2018-11-04T10:20:10.790Z,88.41
2018-11-04T10:22:41.533Z,88.41
2018-11-04T10:25:12.907Z,88.40
2018-11-04T10:27:44.125Z,88.10
2018-11-04T10:30:15.579Z,88.16
2018-11-04T10:32:46.315Z,87.48
2018-11-04T10:35:16.621Z,86.89
2018-11-04T10:37:46.917Z,87.30
2018-11-04T10:40:17.248Z,88.04
2018-11-04T10:42:47.503Z,87.55
2018-11-04T10:45:17.783Z,87.64
2018-11-04T10:47:48.079Z,87.30
2018-11-04T10:50:18.495Z,87.44
2018-11-04T10:52:48.759Z,87.57
2018-11-04T10:55:19.109Z,87.48
2018-11-04T10:57:49.406Z,87.39
2018-11-04T11:00:25.095Z,86.73
2018-11-04T11:02:55.283Z,86.53
2018-11-04T11:05:25.511Z,86.97
2018-11-04T11:07:55.831Z,86.71
2018-11-04T11:10:26.219Z,86.99
2018-11-04T11:12:56.533Z,87.08
2018-11-04T11:15:26.851Z,86.09
2018-11-04T11:17:57.088Z,85.65
2018-11-04T11:20:27.242Z,86.31
2018-11-04T11:22:57.751Z,86.36
2018-11-04T11:25:27.890Z,85.62
2018-11-04T11:27:58.198Z,84.26
2018-11-04T11:30:28.463Z,85.13
2018-11-04T11:32:58.729Z,84.46
2018-11-04T11:35:28.988Z,83.79
2018-11-04T11:37:59.293Z,83.83
2018-11-04T11:40:29.521Z,84.01
2018-11-04T11:42:59.834Z,83.51
2018-11-04T11:45:30.122Z,84.00
2018-11-04T11:48:00.356Z,83.96
2018-11-04T11:50:30.643Z,84.23
2018-11-04T11:53:00.851Z,84.12
2018-11-04T11:55:31.131Z,84.80
2018-11-04T11:58:07.806Z,85.03
2018-11-04T12:00:38.125Z,85.21
2018-11-04T12:03:08.482Z,84.80
2018-11-04T12:05:39.285Z,84.64
2018-11-04T12:08:09.529Z,84.44
2018-11-04T12:10:41.183Z,84.46
2018-11-04T12:13:11.681Z,83.63
2018-11-04T12:15:41.995Z,84.43
2018-11-04T12:18:12.463Z,84.28
2018-11-04T12:20:43.219Z,84.95
2018-11-04T12:23:13.576Z,85.59
2018-11-04T12:25:43.898Z,85.26
2018-11-04T12:28:34.960Z,84.99
2018-11-04T12:31:05.613Z,85.41
2018-11-04T12:33:38.030Z,85.49
2018-11-04T12:36:10.066Z,84.93
2018-11-04T12:38:40.324Z,84.81
2018-11-04T12:41:12.136Z,85.20
2018-11-04T12:43:42.442Z,85.27
2018-11-04T12:46:12.761Z,85.62
2018-11-04T12:48:43.179Z,85.24
2018-11-04T12:51:13.445Z,84.70
2018-11-04T12:53:45.638Z,84.54
2018-11-04T12:56:15.881Z,84.84
2018-11-04T12:58:46.126Z,84.31
2018-11-04T13:01:18.491Z,83.38
2018-11-04T13:03:51.317Z,83.67
2018-11-04T13:06:21.890Z,84.39
2018-11-04T13:08:52.642Z,84.53
2018-11-04T13:11:23.060Z,84.36
2018-11-04T13:13:53.368Z,84.38
2018-11-04T13:16:23.679Z,85.13
2018-11-04T13:18:53.979Z,84.91
2018-11-04T13:21:24.507Z,85.08
2018-11-04T13:23:54.785Z,84.27
2018-11-04T13:26:25.047Z,84.27
2018-11-04T13:28:55.458Z,83.89
2018-11-04T13:31:25.686Z,84.10
2018-11-04T13:33:55.966Z,83.70
2018-11-04T13:36:26.176Z,83.42
2018-11-04T13:38:56.469Z,83.28
2018-11-04T13:41:26.695Z,83.68
2018-11-04T13:43:57.021Z,84.25
2018-11-04T13:46:27.332Z,84.77
2018-11-04T13:48:57.558Z,84.38
2018-11-04T13:51:27.903Z,84.49
2018-11-04T13:53:58.174Z,84.62
2018-11-04T13:56:28.514Z,84.94
2018-11-04T13:58:59.281Z,85.20
2018-11-04T14:01:29.553Z,85.13
2018-11-04T14:03:59.779Z,85.66
2018-11-04T14:06:30.014Z,85.60
2018-11-04T14:09:00.234Z,85.64
2018-11-04T14:11:30.513Z,86.00
2018-11-04T14:14:00.733Z,85.68
2018-11-04T14:16:31.079Z,86.34
2018-11-04T14:19:01.393Z,86.58
2018-11-04T14:21:31.717Z,86.78
2018-11-04T14:24:01.930Z,86.59
2018-11-04T14:26:32.217Z,86.79
2018-11-04T14:29:02.455Z,86.75
2018-11-04T14:31:32.815Z,86.30
2018-11-04T14:34:03.167Z,86.54
2018-11-04T14:36:33.416Z,86.32
2018-11-04T14:39:04.837Z,86.17
2018-11-04T14:41:35.164Z,85.79
2018-11-04T14:44:06.074Z,86.43
2018-11-04T14:46:36.504Z,86.58
2018-11-04T14:49:06.817Z,86.98
2018-11-04T14:51:37.129Z,87.11
2018-11-04T14:54:10.460Z,87.07
2018-11-04T14:56:40.712Z,87.47
2018-11-04T14:59:10.972Z,86.95
2018-11-04T15:01:41.499Z,87.74
2018-11-04T15:04:11.789Z,87.17
2018-11-04T15:06:42.013Z,87.14
2018-11-04T15:09:12.501Z,87.48
2018-11-04T15:11:42.821Z,87.64
2018-11-04T15:14:13.125Z,87.56
2018-11-04T15:16:43.534Z,87.41
2018-11-04T15:19:14.300Z,87.13
2018-11-04T15:21:45.298Z,87.54
2018-11-04T15:24:16.219Z,87.08
2018-11-04T15:26:46.468Z,87.82
2018-11-04T15:29:16.751Z,87.23
2018-11-04T15:31:47.064Z,88.02
2018-11-04T15:34:17.584Z,87.63
2018-11-04T15:36:47.748Z,87.97
2018-11-04T15:39:19.111Z,87.50
2018-11-04T15:41:49.412Z,87.86
2018-11-04T15:44:19.848Z,88.18
2018-11-04T15:46:49.980Z,88.26
2018-11-04T15:49:26.849Z,88.12
2018-11-04T15:51:57.298Z,87.67
2018-11-04T15:54:27.552Z,88.30
2018-11-04T15:57:05.011Z,87.83
2018-11-04T15:59:35.385Z,88.12
2018-11-04T16:02:05.959Z,88.12
2018-11-04T16:04:44.547Z,87.97
2018-11-04T16:07:06.738Z,88.05
2018-11-04T16:09:37.571Z,88.19
2018-11-04T16:12:08.737Z,87.97
2018-11-04T16:14:39.322Z,88.49
2018-11-04T16:17:09.728Z,88.19
2018-11-04T16:19:40.570Z,88.78
2018-11-04T16:22:10.924Z,87.87
2018-11-04T16:24:41.287Z,88.30
2018-11-04T16:27:11.559Z,88.25
2018-11-04T16:29:42.044Z,88.48
2018-11-04T16:32:12.369Z,88.46
2018-11-04T16:34:42.754Z,88.10
2018-11-04T16:37:13.026Z,88.46
2018-11-04T16:39:43.332Z,88.58
2018-11-04T16:42:15.221Z,88.62
2018-11-04T16:44:45.648Z,88.58
2018-11-04T16:47:15.861Z,88.64
2018-11-04T16:49:46.165Z,88.61
2018-11-04T16:52:16.454Z,88.41
2018-11-04T16:54:46.732Z,88.84
2018-11-04T16:57:16.965Z,88.76
2018-11-04T16:59:47.165Z,88.97
2018-11-04T17:02:17.493Z,88.92
2018-11-04T17:04:47.995Z,89.35
2018-11-04T17:07:18.208Z,89.16
2018-11-04T17:09:48.576Z,89.14
2018-11-04T17:12:18.977Z,88.86
2018-11-04T17:14:49.313Z,89.10
2018-11-04T17:17:19.565Z,89.16
2018-11-04T17:19:49.949Z,89.02
2018-11-04T17:22:20.394Z,89.31
2018-11-04T17:24:50.939Z,89.36
2018-11-04T17:27:21.141Z,89.31
2018-11-04T17:29:51.461Z,89.26
2018-11-04T17:32:21.785Z,89.57
2018-11-04T17:34:52.143Z,89.46
2018-11-04T17:37:22.491Z,90.02
2018-11-04T17:39:52.793Z,89.92
2018-11-04T17:42:23.326Z,89.95
2018-11-04T17:44:53.578Z,89.76
2018-11-04T17:47:23.838Z,89.41
2018-11-04T17:49:54.188Z,89.63
2018-11-04T17:52:24.469Z,90.16
2018-11-04T17:54:55.745Z,89.58
2018-11-04T17:57:25.983Z,89.70
2018-11-04T17:59:56.254Z,89.68
2018-11-04T18:02:26.651Z,89.84
2018-11-04T18:04:57.836Z,90.01
2018-11-04T18:07:28.266Z,89.66
2018-11-04T18:09:58.562Z,89.69
2018-11-04T18:12:28.891Z,89.56
2018-11-04T18:14:59.161Z,89.74
2018-11-04T18:17:29.471Z,89.96
2018-11-04T18:20:04.976Z,89.78
2018-11-04T18:22:35.276Z,89.71
2018-11-04T18:25:06.408Z,89.96
2018-11-04T18:27:36.777Z,90.00
2018-11-04T18:30:09.424Z,89.70
2018-11-04T18:33:23.995Z,89.74
2018-11-04T18:35:54.361Z,89.69
2018-11-04T18:38:24.695Z,89.58
2018-11-04T18:40:54.935Z,89.74
2018-11-04T18:43:25.247Z,89.97
2018-11-04T18:45:55.543Z,90.17
2018-11-04T18:48:25.838Z,90.42
2018-11-04T18:50:56.199Z,90.60
2018-11-04T18:53:26.628Z,90.22
2018-11-04T18:55:56.906Z,90.63
2018-11-04T18:59:01.557Z,90.73
2018-11-04T19:01:31.881Z,90.79
2018-11-04T19:04:02.216Z,90.69
2018-11-04T19:06:32.559Z,90.61
2018-11-04T19:09:03.029Z,91.01
2018-11-04T19:11:33.414Z,90.93
2018-11-04T19:14:04.089Z,91.30
2018-11-04T19:16:34.611Z,91.14
2018-11-04T19:19:06.204Z,91.57
2018-11-04T19:21:36.583Z,91.29
2018-11-04T19:24:07.644Z,91.08
2018-11-04T19:26:38.043Z,91.28
2018-11-04T19:29:08.974Z,90.93
2018-11-04T19:31:39.973Z,91.42
2018-11-04T19:34:10.403Z,91.45
2018-11-04T19:36:41.623Z,91.38
2018-11-04T19:39:13.514Z,90.96
2018-11-04T19:41:43.953Z,91.29
2018-11-04T19:44:14.397Z,91.15
2018-11-04T19:46:44.627Z,91.50
2018-11-04T19:49:15.827Z,91.54
2018-11-04T19:51:46.488Z,91.66
2018-11-04T19:54:17.973Z,92.00
2018-11-04T19:56:48.383Z,91.16
2018-11-04T19:59:19.015Z,91.85
2018-11-04T20:01:49.763Z,91.42
2018-11-04T20:04:20.269Z,91.44
2018-11-04T20:06:51.111Z,91.92
2018-11-04T20:09:21.430Z,91.74
2018-11-04T20:11:51.730Z,91.82
2018-11-04T20:14:23.855Z,92.02
2018-11-04T20:16:54.759Z,91.95
2018-11-04T20:19:30.419Z,92.28
2018-11-04T20:22:00.748Z,91.34
2018-11-04T20:24:39.741Z,92.37
2018-11-04T20:27:10.324Z,92.34
2018-11-04T20:29:40.654Z,92.25
2018-11-04T20:32:16.221Z,92.03
2018-11-04T20:34:46.560Z,92.44
2018-11-04T20:37:16.831Z,92.43
2018-11-04T20:39:52.847Z,92.63
2018-11-04T20:42:23.128Z,92.45
2018-11-04T20:44:53.451Z,92.66
2018-11-04T20:47:31.233Z,92.82
2018-11-04T20:50:07.640Z,92.90
2018-11-04T20:52:38.020Z,92.78
2018-11-04T20:55:08.449Z,93.10
2018-11-04T20:57:40.426Z,92.91
2018-11-04T21:00:12.697Z,93.17
2018-11-04T21:02:43.918Z,92.97
2018-11-04T21:05:14.266Z,92.88
2018-11-04T21:07:44.534Z,92.85
2018-11-04T21:10:14.884Z,93.36
2018-11-04T21:12:45.218Z,93.48
2018-11-04T21:15:15.556Z,93.22
2018-11-04T21:17:45.826Z,93.24
2018-11-04T21:20:16.103Z,93.34
2018-11-04T21:22:46.441Z,93.25
2018-11-04T21:25:16.897Z,93.36
2018-11-04T21:27:47.192Z,93.02
2018-11-04T21:30:17.858Z,93.39
2018-11-04T21:32:48.164Z,93.53
2018-11-04T21:35:18.776Z,93.88
2018-11-04T21:37:49.264Z,93.84
2018-11-04T21:40:19.627Z,93.30
2018-11-04T21:42:50.129Z,93.76
2018-11-04T21:45:20.468Z,93.89
2018-11-04T21:47:50.635Z,93.67
2018-11-04T21:50:21.087Z,93.99
2018-11-04T21:52:51.437Z,93.91
2018-11-04T21:55:22.015Z,93.75
2018-11-04T21:57:52.074Z,93.90
2018-11-04T22:00:22.398Z,93.72
2018-11-04T22:02:52.836Z,94.09
2018-11-04T22:05:23.008Z,94.10
2018-11-04T22:07:53.324Z,93.96
2018-11-04T22:10:23.660Z,93.86
2018-11-04T22:12:53.963Z,94.30
2018-11-04T22:15:24.350Z,94.06
2018-11-04T22:17:54.582Z,93.96
2018-11-04T22:20:24.926Z,93.98
2018-11-04T22:22:55.218Z,94.14
2018-11-04T22:25:25.549Z,93.98
2018-11-04T22:27:55.950Z,94.11
2018-11-04T22:30:26.295Z,94.05
2018-11-04T22:32:56.590Z,94.50
2018-11-04T22:35:26.892Z,94.34
2018-11-04T22:37:57.409Z,94.06
2018-11-04T22:40:27.650Z,94.21
2018-11-04T22:42:57.901Z,94.29
2018-11-04T22:45:28.222Z,93.96
2018-11-04T22:47:58.506Z,94.03
2018-11-04T22:50:28.737Z,94.00
2018-11-04T22:52:59.011Z,94.16
2018-11-04T22:55:29.262Z,94.19
2018-11-04T22:58:06.876Z,94.16
2018-11-04T23:00:44.520Z,94.54
2018-11-04T23:03:14.817Z,94.92
2018-11-04T23:05:45.300Z,95.05
2018-11-04T23:08:15.576Z,94.85
2018-11-04T23:10:45.959Z,94.92
2018-11-04T23:13:16.204Z,95.17
2018-11-04T23:15:46.483Z,95.02
2018-11-04T23:18:16.821Z,95.39
2018-11-04T23:20:47.185Z,94.99
2018-11-04T23:23:17.535Z,95.44
2018-11-04T23:25:47.893Z,94.92
2018-11-04T23:28:18.279Z,94.85
2018-11-04T23:30:48.591Z,94.89
2018-11-04T23:33:19.175Z,94.99
2018-11-04T23:35:49.511Z,95.33
2018-11-04T23:38:21.001Z,95.00
2018-11-04T23:40:51.405Z,95.50
2018-11-04T23:43:21.802Z,95.71
2018-11-04T23:45:52.066Z,95.63
2018-11-04T23:48:22.452Z,95.38
2018-11-04T23:50:52.811Z,95.60
2018-11-04T23:53:23.158Z,95.42
2018-11-04T23:55:53.431Z,95.77
2018-11-04T23:58:23.765Z,95.35
